Time;durP1;ratioP1;P1;durP2;ratioP2;P2;SDS_P1;SDS_P2;PMS_P1;PMS_P2;Temp;Humidity;BMP_temperature;BMP_pressure;BME280_temperature;BME280_humidity;BME280_pressure;Samples;Min_cycle;Max_cycle;Signal;HPM_P1;HPM_P2
2021/12/08 00:01:49;;;;;;;5.00;3.00;;;-0.70;99.90;;;;;;4958296;28;20092;-83
2021/12/08 00:04:15;;;;;;;3.70;3.22;;;-0.70;99.90;;;;;;4952980;28;20061;-83
2021/12/08 00:06:40;;;;;;;4.20;2.67;;;-0.70;99.90;;;;;;4975813;28;20030;-83
2021/12/08 00:14:36;;;;;;;3.20;2.90;;;-0.70;99.90;;;;;;4971778;28;20064;-83
2021/12/08 00:17:03;;;;;;;3.15;2.58;;;-0.80;99.90;;;;;;4954776;28;20035;-83
2021/12/08 00:19:29;;;;;;;2.88;2.28;;;-0.70;99.90;;;;;;4953811;28;20516;-83
2021/12/08 00:21:55;;;;;;;3.35;3.00;;;-0.70;99.90;;;;;;4958168;28;20332;-83
2021/12/08 00:24:21;;;;;;;4.05;2.95;;;-0.70;99.90;;;;;;4971041;28;20050;-83
2021/12/08 00:26:47;;;;;;;3.05;2.72;;;-0.70;99.90;;;;;;4972610;28;20034;-83
2021/12/08 00:29:13;;;;;;;2.97;2.50;;;-0.60;99.90;;;;;;4958326;28;20038;-83
2021/12/08 00:31:40;;;;;;;3.65;3.30;;;-0.60;99.90;;;;;;4955367;28;20034;-83
2021/12/08 00:34:06;;;;;;;4.93;2.97;;;-0.60;99.90;;;;;;4952238;28;20543;-83
2021/12/08 00:36:41;;;;;;;8.30;2.60;;;-0.60;99.90;;;;;;4956818;28;20058;-83
2021/12/08 00:39:07;;;;;;;2.42;2.25;;;-0.70;99.90;;;;;;4970289;28;20122;-83
2021/12/08 00:41:32;;;;;;;2.42;2.22;;;-0.70;99.90;;;;;;4957547;28;20166;-83
2021/12/08 00:43:58;;;;;;;2.97;2.22;;;-0.60;99.90;;;;;;4964887;28;20042;-83
2021/12/08 00:46:24;;;;;;;3.00;2.70;;;-0.60;99.90;;;;;;4952386;28;20110;-83
2021/12/08 00:48:51;;;;;;;2.65;2.22;;;-0.60;99.90;;;;;;4971243;28;20046;-83
2021/12/08 00:51:18;;;;;;;2.70;2.30;;;-0.60;99.90;;;;;;4968627;28;20053;-83
2021/12/08 00:53:45;;;;;;;3.33;2.50;;;-0.60;99.90;;;;;;4969526;28;20177;-83
2021/12/08 00:56:12;;;;;;;3.00;2.53;;;-0.70;99.90;;;;;;4965199;28;20038;-83
2021/12/08 00:58:38;;;;;;;4.07;2.50;;;-0.60;99.90;;;;;;4964719;28;20157;-83
2021/12/08 01:01:07;;;;;;;4.10;3.00;;;-0.70;99.90;;;;;;4953746;28;20062;-83
2021/12/08 01:03:37;;;;;;;3.20;2.53;;;-0.60;99.90;;;;;;4957233;28;20109;-83
2021/12/08 01:06:04;;;;;;;4.63;2.55;;;-0.60;99.90;;;;;;4951733;28;20027;-83
2021/12/08 01:08:34;;;;;;;4.65;2.95;;;-0.60;99.90;;;;;;4950007;28;20057;-83
2021/12/08 01:11:20;;;;;;;3.50;3.20;;;-0.60;99.90;;;;;;4950918;28;20213;-83
2021/12/08 01:13:46;;;;;;;4.18;2.78;;;-0.50;99.90;;;;;;4949571;28;20030;-83
2021/12/08 01:16:13;;;;;;;3.53;2.90;;;-0.60;99.90;;;;;;4973564;28;20046;-82
2021/12/08 01:18:40;;;;;;;6.65;3.17;;;-0.50;99.90;;;;;;4953678;28;20038;-83
2021/12/08 01:21:09;;;;;;;3.80;3.45;;;-0.50;99.90;;;;;;4949413;28;20034;-83
2021/12/08 01:23:37;;;;;;;3.28;2.97;;;-0.50;99.90;;;;;;4947280;28;20024;-83
2021/12/08 01:26:08;;;;;;;4.07;3.00;;;-0.50;99.90;;;;;;4952058;28;20050;-83
2021/12/08 01:28:34;;;;;;;7.32;3.10;;;-0.50;99.90;;;;;;4963725;28;20031;-82
2021/12/08 01:31:01;;;;;;;4.05;3.15;;;-0.50;99.90;;;;;;4947883;28;20468;-83
2021/12/08 01:33:30;;;;;;;3.15;2.45;;;-0.50;99.90;;;;;;4948636;28;20045;-83
2021/12/08 01:35:56;;;;;;;;;;;-0.50;99.90;;;;;;4956677;28;20066;-83
2021/12/08 01:38:22;;;;;;;3.00;2.75;;;-0.40;99.90;;;;;;4971496;28;20354;-82
2021/12/08 01:40:48;;;;;;;3.95;3.58;;;-0.40;99.90;;;;;;4970420;28;20073;-82
2021/12/08 01:43:25;;;;;;;4.55;2.78;;;-0.40;99.90;;;;;;4951365;28;20026;-83
2021/12/08 01:46:00;;;;;;;3.15;2.85;;;-0.40;99.90;;;;;;4950940;28;20146;-83
2021/12/08 01:48:28;;;;;;;3.80;2.63;;;-0.40;99.90;;;;;;4955629;28;20030;-83
2021/12/08 01:51:01;;;;;;;3.63;2.92;;;-0.40;99.90;;;;;;4950922;28;20084;-83
2021/12/08 01:53:28;;;;;;;3.72;3.42;;;-0.40;99.90;;;;;;4961958;28;20090;-83
2021/12/08 01:55:54;;;;;;;3.47;2.67;;;-0.40;99.90;;;;;;4951497;28;20038;-83
2021/12/08 01:58:20;;;;;;;3.50;3.20;;;-0.40;99.90;;;;;;4965494;28;20027;-83
2021/12/08 02:00:51;;;;;;;3.22;2.83;;;-0.30;99.90;;;;;;4962482;28;20440;-83
2021/12/08 02:03:19;;;;;;;2.75;2.55;;;-0.30;99.90;;;;;;4949471;28;20440;-83
2021/12/08 02:05:45;;;;;;;3.15;2.85;;;-0.30;99.90;;;;;;4950733;28;20022;-83
2021/12/08 02:08:12;;;;;;;3.97;3.03;;;-0.30;99.90;;;;;;4955440;28;20042;-83
2021/12/08 02:10:38;;;;;;;4.53;3.28;;;-0.30;99.90;;;;;;4952862;28;20622;-83
2021/12/08 02:13:05;;;;;;;3.83;3.15;;;-0.30;99.90;;;;;;4953115;28;20054;-83
2021/12/08 02:15:31;;;;;;;4.10;3.70;;;-0.30;99.90;;;;;;4950863;28;20085;-83
2021/12/08 02:17:57;;;;;;;3.47;3.15;;;-0.40;99.90;;;;;;4951754;28;20030;-83
2021/12/08 02:20:26;;;;;;;3.17;2.63;;;-0.40;99.90;;;;;;4953146;28;20117;-83
2021/12/08 02:22:52;;;;;;;5.03;3.25;;;-0.40;99.90;;;;;;4951082;28;20113;-83
2021/12/08 02:25:21;;;;;;;4.47;3.95;;;-0.40;99.90;;;;;;4967424;28;20031;-83
2021/12/08 02:27:48;;;;;;;4.13;3.40;;;-0.40;99.90;;;;;;4954625;28;20089;-83
2021/12/08 02:30:42;;;;;;;3.80;2.90;;;-0.40;99.90;;;;;;4963751;28;20463;-83
2021/12/08 02:49:28;;;;;;;4.30;2.97;;;-0.40;99.90;;;;;;4970633;28;20030;-83
2021/12/08 02:51:54;;;;;;;3.28;3.00;;;-0.40;99.90;;;;;;4958049;28;20041;-82
2021/12/08 02:54:21;;;;;;;6.95;3.17;;;-0.40;99.90;;;;;;4955091;28;20609;-83
2021/12/08 02:56:47;;;;;;;5.68;3.42;;;-0.40;99.90;;;;;;4958630;28;20121;-82
2021/12/08 02:59:13;;;;;;;5.25;3.05;;;-0.40;99.90;;;;;;4971416;28;20038;-82
2021/12/08 03:01:39;;;;;;;3.90;3.30;;;-0.40;99.90;;;;;;4968330;28;20058;-83
2021/12/08 03:04:09;;;;;;;4.65;3.78;;;-0.40;99.90;;;;;;4968189;28;20027;-83
2021/12/08 03:06:36;;;;;;;3.22;2.92;;;-0.40;99.90;;;;;;4973939;28;20085;-83
2021/12/08 03:09:04;;;;;;;4.95;3.50;;;-0.30;99.90;;;;;;4956427;28;20030;-82
2021/12/08 03:11:30;;;;;;;6.55;4.10;;;-0.30;99.90;;;;;;4956771;28;20061;-83
2021/12/08 03:14:01;;;;;;;3.05;2.72;;;-0.30;99.90;;;;;;4961431;28;20129;-83
2021/12/08 03:16:28;;;;;;;2.90;2.70;;;-0.30;99.90;;;;;;4957462;28;20034;-83
2021/12/08 03:18:54;;;;;;;4.93;3.15;;;-0.30;99.90;;;;;;4956879;28;20126;-83
2021/12/08 03:21:26;;;;;;;4.45;3.00;;;-0.20;99.90;;;;;;4975715;28;20038;-83
2021/12/08 03:24:11;;;;;;;3.97;3.17;;;-0.20;99.90;;;;;;4955828;28;21053;-83
2021/12/08 03:26:47;;;;;;;7.47;3.40;;;-0.30;99.90;;;;;;4975318;28;20396;-83
2021/12/08 03:29:38;;;;;;;5.05;3.33;;;-0.20;99.90;;;;;;4958248;28;20100;-82
2021/12/08 03:32:13;;;;;;;4.35;3.50;;;-0.30;99.90;;;;;;4970520;28;20042;-83
2021/12/08 03:34:49;;;;;;;4.22;3.20;;;-0.20;99.90;;;;;;4939246;28;20103;-83
2021/12/08 03:37:16;;;;;;;3.45;3.00;;;-0.20;99.90;;;;;;4953266;28;20057;-83
2021/12/08 03:39:43;;;;;;;3.30;3.00;;;-0.10;99.90;;;;;;4956292;28;20122;-83
2021/12/08 03:42:10;;;;;;;4.20;3.23;;;-0.20;99.90;;;;;;4957989;28;20024;-83
2021/12/08 03:44:39;;;;;;;4.35;3.17;;;-0.10;99.90;;;;;;4969571;28;20286;-83
2021/12/08 03:47:14;;;;;;;5.13;4.22;;;-0.10;99.90;;;;;;4957632;28;20027;-83
2021/12/08 03:49:42;;;;;;;3.45;2.83;;;-0.10;99.90;;;;;;4952440;28;20034;-83
2021/12/08 03:52:08;;;;;;;4.75;3.60;;;-0.10;99.90;;;;;;4956233;28;20505;-83
2021/12/08 03:54:34;;;;;;;3.30;3.10;;;-0.10;99.90;;;;;;4953261;28;20049;-83
2021/12/08 03:57:00;;;;;;;4.35;2.92;;;-0.20;99.90;;;;;;4951246;28;20039;-83
2021/12/08 03:59:26;;;;;;;4.65;3.55;;;-0.20;99.90;;;;;;4955379;28;20050;-83
2021/12/08 04:01:52;;;;;;;5.85;3.67;;;-0.20;99.90;;;;;;4965878;28;20039;-82
2021/12/08 04:04:18;;;;;;;7.20;4.95;;;-0.20;99.90;;;;;;4968901;28;20600;-82
2021/12/08 04:06:51;;;;;;;5.40;3.58;;;-0.20;99.90;;;;;;4954374;28;20031;-82
2021/12/08 04:09:30;;;;;;;5.60;4.32;;;-0.30;99.90;;;;;;4972668;28;20031;-82
2021/12/08 04:11:57;;;;;;;5.93;3.83;;;-0.20;99.90;;;;;;4973685;28;20027;-82
2021/12/08 04:14:26;;;;;;;7.15;3.60;;;-0.20;99.90;;;;;;4974550;28;20027;-82
2021/12/08 04:16:59;;;;;;;4.35;3.92;;;-0.20;99.90;;;;;;4972575;28;20169;-83
2021/12/08 04:19:26;;;;;;;8.40;4.00;;;-0.20;99.90;;;;;;4970919;28;20494;-83
2021/12/08 04:21:55;;;;;;;3.67;3.38;;;-0.20;99.90;;;;;;4975834;28;20030;-83
2021/12/08 04:24:21;;;;;;;;;;;-0.30;99.90;;;;;;4955671;28;20739;-83
2021/12/08 04:26:55;;;;;;;5.63;3.55;;;-0.20;99.90;;;;;;4955113;28;19914;-83
2021/12/08 04:29:25;;;;;;;4.63;3.85;;;-0.20;99.90;;;;;;4973736;28;20527;-83
2021/12/08 04:31:52;;;;;;;3.58;3.28;;;-0.20;99.90;;;;;;4986427;28;20125;-83
2021/12/08 04:34:25;;;;;;;3.55;3.25;;;-0.20;99.90;;;;;;4971369;28;20057;-83
2021/12/08 04:36:55;;;;;;;3.45;3.15;;;-0.20;99.90;;;;;;4994315;28;20077;-83
2021/12/08 04:40:03;;;;;;;3.70;3.38;;;-0.10;99.90;;;;;;4990713;28;20483;-83
2021/12/08 04:42:48;;;;;;;6.47;4.35;;;-0.10;99.90;;;;;;5001618;28;20080;-84
2021/12/08 04:45:23;;;;;;;4.03;3.42;;;0.00;99.90;;;;;;4975057;28;20042;-83
2021/12/08 04:51:12;;;;;;;8.63;3.38;;;-0.10;99.90;;;;;;4995411;28;20026;-83
2021/12/08 04:53:58;;;;;;;6.55;4.13;;;-0.20;99.90;;;;;;4991959;28;20128;-83
2021/12/08 05:09:39;;;;;;;8.52;5.45;;;0.00;99.90;;;;;;4989360;28;20088;-83
2021/12/08 05:12:18;;;;;;;3.58;3.33;;;0.00;99.90;;;;;;4976360;28;20038;-83
2021/12/08 05:14:55;;;;;;;3.67;3.38;;;0.00;99.90;;;;;;4993378;28;20054;-83
2021/12/08 05:17:49;;;;;;;9.80;3.10;;;0.00;99.90;;;;;;4974765;28;20865;-84
2021/12/08 05:20:48;;;;;;;2.78;2.55;;;0.00;99.90;;;;;;4967963;28;20046;-84
2021/12/08 05:23:40;;;;;;;5.07;3.10;;;0.00;99.90;;;;;;4979395;28;20428;-84
2021/12/08 05:26:12;;;;;;;2.90;2.65;;;0.10;99.90;;;;;;4960617;28;20420;-82
2021/12/08 05:28:38;;;;;;;4.25;3.38;;;0.10;99.90;;;;;;4997894;28;20077;-82
2021/12/08 05:31:13;;;;;;;5.03;3.05;;;0.10;99.90;;;;;;4974324;28;20034;-82
2021/12/08 05:33:41;;;;;;;2.88;2.70;;;0.10;99.90;;;;;;4993991;28;20050;-82
2021/12/08 05:36:09;;;;;;;6.35;3.35;;;0.10;99.90;;;;;;4980922;28;20022;-83
2021/12/08 05:38:36;;;;;;;4.28;3.30;;;0.10;99.90;;;;;;4974998;28;20092;-83
2021/12/08 05:41:19;;;;;;;4.38;3.17;;;0.00;99.90;;;;;;4981907;28;20035;-82
2021/12/08 05:43:49;;;;;;;5.57;3.42;;;0.00;99.90;;;;;;5001822;28;20026;-83
2021/12/08 05:46:17;;;;;;;7.18;3.53;;;0.00;99.90;;;;;;4982203;28;20121;-83
2021/12/08 05:48:46;;;;;;;6.38;3.95;;;-0.10;99.90;;;;;;4978343;28;20037;-82
2021/12/08 05:51:31;;;;;;;4.07;3.35;;;-0.10;99.90;;;;;;4995618;28;20125;-83
2021/12/08 05:54:07;;;;;;;3.97;3.20;;;0.00;99.90;;;;;;4982354;28;20448;-83
2021/12/08 05:56:33;;;;;;;5.53;3.30;;;0.00;99.90;;;;;;4979079;28;20026;-84
2021/12/08 05:59:01;;;;;;;7.45;3.90;;;0.00;99.90;;;;;;4998976;28;20132;-83
2021/12/08 06:01:47;;;;;;;7.93;3.88;;;0.00;99.90;;;;;;4982780;28;20046;-83
2021/12/08 06:04:14;;;;;;;3.88;3.58;;;0.00;99.90;;;;;;4985601;28;20026;-83
2021/12/08 06:06:41;;;;;;;7.97;3.85;;;0.00;99.90;;;;;;4985343;28;20026;-83
2021/12/08 06:09:09;;;;;;;4.22;3.45;;;0.00;99.90;;;;;;4980508;28;20125;-84
2021/12/08 06:11:36;;;;;;;6.45;3.45;;;0.00;99.90;;;;;;4993029;28;20065;-83
2021/12/08 06:14:05;;;;;;;4.55;3.80;;;0.00;99.90;;;;;;4973958;28;20061;-84
2021/12/08 06:16:33;;;;;;;10.75;4.20;;;0.00;99.90;;;;;;4975862;28;20038;-83
2021/12/08 06:18:59;;;;;;;6.18;3.80;;;0.00;99.90;;;;;;4992106;28;20083;-83
2021/12/08 06:21:27;;;;;;;3.55;3.28;;;0.00;99.90;;;;;;4978747;28;20499;-83
2021/12/08 06:23:55;;;;;;;4.63;3.70;;;0.00;99.90;;;;;;4990267;28;21182;-82
2021/12/08 06:26:23;;;;;;;4.18;3.80;;;0.10;99.90;;;;;;4976568;28;20022;-82
2021/12/08 06:28:50;;;;;;;5.32;3.65;;;0.00;99.90;;;;;;4974848;28;20106;-82
2021/12/08 06:31:18;;;;;;;4.55;3.83;;;0.00;99.90;;;;;;4980046;28;20046;-84
2021/12/08 06:33:44;;;;;;;6.90;4.20;;;0.00;99.90;;;;;;4974873;28;20046;-84
2021/12/08 06:36:16;;;;;;;5.50;4.13;;;0.00;99.90;;;;;;4978652;28;20057;-84
2021/12/08 06:38:44;;;;;;;9.73;5.25;;;0.00;99.90;;;;;;4974695;28;20117;-84
2021/12/08 06:41:21;;;;;;;8.20;7.40;;;0.10;99.90;;;;;;4990842;28;20023;-84
2021/12/08 06:43:52;;;;;;;5.05;4.47;;;0.10;99.90;;;;;;4975154;28;20025;-84
2021/12/08 06:46:18;;;;;;;5.82;4.20;;;0.10;99.90;;;;;;4974645;28;20480;-84
2021/12/08 06:48:48;;;;;;;4.85;3.90;;;0.10;99.90;;;;;;4970824;28;20057;-84
2021/12/08 06:51:28;;;;;;;4.82;4.10;;;0.10;99.90;;;;;;4976171;28;20531;-84
2021/12/08 06:54:00;;;;;;;5.18;3.78;;;0.10;99.90;;;;;;4980198;28;20430;-84
2021/12/08 06:56:37;;;;;;;5.38;3.05;;;0.10;99.90;;;;;;4997977;28;20065;-84
2021/12/08 06:59:08;;;;;;;6.22;3.80;;;0.20;99.90;;;;;;4982728;28;20093;-84
2021/12/08 07:01:52;;;;;;;8.75;3.78;;;0.10;99.90;;;;;;4994858;28;20034;-84
2021/12/08 07:04:30;;;;;;;4.25;3.85;;;0.10;99.90;;;;;;4988627;28;20033;-84
2021/12/08 07:07:01;;;;;;;;;;;0.10;99.90;;;;;;4976767;28;20388;-84
2021/12/08 07:09:43;;;;;;;3.63;3.40;;;0.10;99.90;;;;;;4991593;28;19937;-84
2021/12/08 07:12:20;;;;;;;5.82;3.45;;;0.10;99.90;;;;;;4998753;28;20034;-83
2021/12/08 07:14:57;;;;;;;4.47;3.97;;;0.20;99.90;;;;;;4995181;28;20033;-83
2021/12/08 07:17:27;;;;;;;8.88;3.33;;;0.20;99.90;;;;;;4994227;28;20042;-84
2021/12/08 07:20:13;;;;;;;4.65;3.83;;;0.20;99.90;;;;;;4977386;28;20060;-84
2021/12/08 07:22:40;;;;;;;3.88;3.22;;;0.20;99.90;;;;;;4977271;28;20021;-84
2021/12/08 07:25:06;;;;;;;4.82;3.65;;;0.20;99.90;;;;;;4991157;28;20026;-84
2021/12/08 07:27:35;;;;;;;5.15;3.78;;;0.30;99.90;;;;;;4978108;28;20559;-84
2021/12/08 07:30:24;;;;;;;5.63;4.03;;;0.30;99.90;;;;;;4977223;28;20033;-83
2021/12/08 07:32:50;;;;;;;4.88;3.88;;;0.40;99.90;;;;;;4992540;28;20042;-84
2021/12/08 07:35:28;;;;;;;4.45;4.05;;;0.40;99.90;;;;;;4973813;28;20045;-84
2021/12/08 07:37:57;;;;;;;5.17;3.63;;;0.30;99.90;;;;;;4992149;28;20103;-84
2021/12/08 07:40:49;;;;;;;5.05;4.15;;;0.30;99.90;;;;;;4983865;28;21173;-84
2021/12/08 07:43:20;;;;;;;7.20;4.57;;;0.30;99.90;;;;;;4995698;28;20018;-84
2021/12/08 07:46:15;;;;;;;4.10;3.70;;;0.30;99.90;;;;;;4980123;28;20130;-84
2021/12/08 07:48:50;;;;;;;6.25;4.25;;;0.20;99.90;;;;;;4972005;28;20171;-84
2021/12/08 07:51:21;;;;;;;5.28;4.53;;;0.30;99.90;;;;;;4975092;28;20030;-84
2021/12/08 07:53:48;;;;;;;5.10;4.30;;;0.30;99.90;;;;;;4987017;28;20105;-84
2021/12/08 07:56:17;;;;;;;6.07;4.65;;;0.30;99.90;;;;;;4992448;28;20034;-84
2021/12/08 07:58:46;;;;;;;6.00;3.45;;;0.20;99.90;;;;;;4972526;28;20046;-84
2021/12/08 08:01:20;;;;;;;6.38;4.35;;;0.20;99.90;;;;;;4964385;28;20034;-84
2021/12/08 08:03:47;;;;;;;6.43;3.92;;;0.30;99.90;;;;;;4968483;28;20730;-84
2021/12/08 08:06:18;;;;;;;5.13;3.88;;;0.40;99.90;;;;;;4992844;28;20121;-84
2021/12/08 08:08:45;;;;;;;5.95;3.70;;;0.40;99.90;;;;;;4992965;28;20041;-84
2021/12/08 08:11:22;;;;;;;5.90;4.35;;;0.30;99.90;;;;;;4992094;28;20380;-84
2021/12/08 08:13:48;;;;;;;5.93;3.70;;;0.30;99.90;;;;;;4994065;28;20145;-84
2021/12/08 08:16:17;;;;;;;4.20;3.83;;;0.30;99.90;;;;;;4974905;28;20399;-84
2021/12/08 08:18:50;;;;;;;3.75;3.28;;;0.40;99.90;;;;;;4975621;28;20547;-84
2021/12/08 08:21:21;;;;;;;6.80;4.22;;;0.40;99.90;;;;;;4977846;28;20049;-84
2021/12/08 08:23:47;;;;;;;4.88;4.47;;;0.30;99.90;;;;;;4974528;28;20033;-84
2021/12/08 08:26:15;;;;;;;5.22;3.88;;;0.30;99.90;;;;;;4978287;28;20022;-84
2021/12/08 08:28:44;;;;;;;5.22;4.50;;;0.30;99.90;;;;;;4991088;28;20026;-84
2021/12/08 08:31:15;;;;;;;4.90;4.38;;;0.30;99.90;;;;;;4978481;28;20113;-84
2021/12/08 08:33:42;;;;;;;5.25;3.83;;;0.30;99.90;;;;;;4989155;28;20022;-84
2021/12/08 08:36:13;;;;;;;4.95;4.15;;;0.30;99.90;;;;;;4990289;28;20034;-84
2021/12/08 08:38:59;;;;;;;4.40;4.00;;;0.30;99.90;;;;;;4975081;28;20030;-84
2021/12/08 08:41:32;;;;;;;4.47;3.47;;;0.40;99.90;;;;;;4975831;28;21646;-84
2021/12/08 08:44:03;;;;;;;5.80;3.78;;;0.40;99.90;;;;;;4978416;28;20423;-84
2021/12/08 08:46:35;;;;;;;5.88;3.55;;;0.40;99.90;;;;;;4974915;28;20022;-84
2021/12/08 08:49:06;;;;;;;4.22;3.78;;;0.40;99.90;;;;;;4982607;28;20036;-84
2021/12/08 08:51:40;;;;;;;3.83;3.28;;;0.40;99.90;;;;;;4977653;28;20038;-84
2021/12/08 08:54:14;;;;;;;5.72;4.32;;;0.40;99.90;;;;;;4984669;28;20529;-84
2021/12/08 08:56:47;;;;;;;5.32;4.10;;;0.40;99.90;;;;;;4976299;28;20033;-84
2021/12/08 08:59:19;;;;;;;3.97;3.38;;;0.50;99.90;;;;;;4978445;28;20132;-84
2021/12/08 09:01:51;;;;;;;5.75;4.38;;;0.50;99.90;;;;;;4975754;28;20028;-84
2021/12/08 09:04:24;;;;;;;4.78;4.22;;;0.50;99.90;;;;;;4990576;28;20037;-84
2021/12/08 09:06:56;;;;;;;6.78;4.50;;;0.50;99.90;;;;;;4996929;28;20019;-84
2021/12/08 09:09:26;;;;;;;6.30;4.40;;;0.60;99.90;;;;;;4993237;28;20033;-84
2021/12/08 09:12:04;;;;;;;4.45;3.70;;;0.60;99.90;;;;;;4974953;28;20042;-84
2021/12/08 09:14:43;;;;;;;5.88;4.00;;;0.50;99.90;;;;;;4978845;28;20108;-84
2021/12/08 09:17:16;;;;;;;4.50;4.07;;;0.60;99.90;;;;;;4971531;28;20615;-84
2021/12/08 09:19:55;;;;;;;5.68;3.53;;;0.60;99.90;;;;;;4997227;28;20034;-84
2021/12/08 09:22:29;;;;;;;5.65;4.30;;;0.60;99.90;;;;;;4975108;28;20148;-85
2021/12/08 09:25:06;;;;;;;8.95;4.00;;;0.70;99.90;;;;;;4969479;28;20023;-85
2021/12/08 09:27:38;;;;;;;5.85;4.03;;;0.70;99.90;;;;;;4970620;28;20821;-84
2021/12/08 09:30:24;;;;;;;4.20;3.50;;;0.70;99.90;;;;;;4975280;28;20030;-84
2021/12/08 09:33:01;;;;;;;6.53;3.53;;;0.70;99.90;;;;;;4970151;28;20041;-85
2021/12/08 09:35:35;;;;;;;9.77;3.90;;;0.80;99.90;;;;;;4974742;28;20905;-85
2021/12/08 09:38:17;;;;;;;6.55;3.50;;;0.80;99.90;;;;;;4997279;28;20034;-85
2021/12/08 09:40:55;;;;;;;5.30;3.85;;;0.80;99.90;;;;;;4973188;28;20034;-85
2021/12/08 09:43:46;;;;;;;3.72;3.42;;;0.90;99.90;;;;;;4976994;28;20037;-85
2021/12/08 09:46:17;;;;;;;6.95;3.13;;;0.90;99.90;;;;;;4970926;28;20137;-85
2021/12/08 09:48:44;;;;;;;5.88;4.05;;;0.90;99.90;;;;;;4976586;28;20034;-85
2021/12/08 09:51:11;;;;;;;4.60;3.80;;;0.90;99.90;;;;;;4977707;28;20030;-85
2021/12/08 09:53:38;;;;;;;9.52;5.93;;;0.90;99.90;;;;;;4983652;28;20029;-85
2021/12/08 09:56:05;;;;;;;10.27;5.63;;;1.00;99.90;;;;;;4968446;28;20022;-85
2021/12/08 09:58:31;;;;;;;7.38;4.05;;;1.00;99.90;;;;;;4971315;28;20029;-85
2021/12/08 10:00:59;;;;;;;5.10;4.57;;;1.00;99.90;;;;;;4965394;28;20049;-85
2021/12/08 10:03:26;;;;;;;5.37;4.20;;;1.00;99.90;;;;;;4974699;28;20125;-85
2021/12/08 10:05:52;;;;;;;8.88;5.20;;;1.10;99.90;;;;;;4974454;28;20278;-86
2021/12/08 10:08:19;;;;;;;13.75;5.32;;;1.00;99.90;;;;;;4974338;28;20046;-85
2021/12/08 10:10:46;;;;;;;7.40;4.82;;;1.00;99.90;;;;;;4973575;28;20093;-86
2021/12/08 10:13:14;;;;;;;5.68;4.40;;;1.00;99.90;;;;;;4971559;28;20029;-86
2021/12/08 10:15:41;;;;;;;5.85;4.78;;;1.00;99.90;;;;;;4971676;28;20357;-88
2021/12/08 10:18:08;;;;;;;5.78;4.53;;;1.00;99.90;;;;;;4974056;28;20121;-89
2021/12/08 10:20:49;;;;;;;6.10;4.63;;;1.10;99.90;;;;;;4963561;28;20126;-89
2021/12/08 10:23:23;;;;;;;7.18;4.13;;;1.10;99.90;;;;;;4974422;28;20031;-87
2021/12/08 10:26:11;;;;;;;9.98;5.45;;;1.10;99.90;;;;;;4967085;28;20038;-87
2021/12/08 10:28:41;;;;;;;;;;;1.20;99.90;;;;;;4969561;28;20027;-87
2021/12/08 10:31:39;;;;;;;5.03;4.53;;;1.20;99.90;;;;;;4968305;28;19921;-87
2021/12/08 10:34:21;;;;;;;7.30;5.47;;;1.30;99.90;;;;;;4970007;28;20039;-87
2021/12/08 10:36:55;;;;;;;5.82;5.20;;;1.30;99.90;;;;;;4974614;28;20030;-87
2021/12/08 10:39:31;;;;;;;7.20;4.50;;;1.30;99.90;;;;;;4981323;28;20062;-87
2021/12/08 10:42:14;;;;;;;5.32;4.57;;;1.40;99.90;;;;;;4969871;28;20054;-87
2021/12/08 10:44:48;;;;;;;5.57;4.90;;;1.40;99.90;;;;;;4973231;28;20153;-87
2021/12/08 10:47:17;;;;;;;6.38;4.53;;;1.40;99.90;;;;;;4968037;28;20031;-87
2021/12/08 10:54:59;;;;;;;4.50;4.10;;;1.50;99.90;;;;;;4969456;28;20085;-86
2021/12/08 10:57:37;;;;;;;6.40;4.32;;;1.50;99.90;;;;;;4967978;28;20049;-87
2021/12/08 11:00:03;;;;;;;6.10;4.88;;;1.40;99.90;;;;;;4969122;28;20043;-86
2021/12/08 11:02:41;;;;;;;4.78;4.30;;;1.40;99.90;;;;;;4969009;28;20042;-87
2021/12/08 11:05:27;;;;;;;7.80;4.88;;;1.50;99.90;;;;;;4974579;28;20019;-87
2021/12/08 11:08:08;;;;;;;7.32;5.75;;;1.50;99.90;;;;;;4972898;28;20064;-86
2021/12/08 11:10:46;;;;;;;12.60;10.85;;;1.50;99.90;;;;;;4990096;28;20026;-86
2021/12/08 11:13:13;;;;;;;6.63;5.87;;;1.50;99.90;;;;;;4976802;28;20073;-86
2021/12/08 11:15:40;;;;;;;9.10;6.60;;;1.60;99.90;;;;;;4975434;28;20806;-86
2021/12/08 11:18:19;;;;;;;9.35;5.85;;;1.50;99.90;;;;;;4975284;28;20039;-86
2021/12/08 11:20:50;;;;;;;9.40;5.53;;;1.60;99.90;;;;;;4974742;28;20033;-85
2021/12/08 11:23:28;;;;;;;8.15;6.35;;;1.50;99.90;;;;;;4976107;28;20026;-85
2021/12/08 11:25:56;;;;;;;9.70;5.78;;;1.60;99.90;;;;;;4973305;28;20097;-85
2021/12/08 11:28:33;;;;;;;7.15;5.90;;;1.60;99.90;;;;;;4971074;28;20100;-85
2021/12/08 11:31:16;;;;;;;6.10;5.22;;;1.50;99.90;;;;;;4969347;28;20034;-85
2021/12/08 11:33:48;;;;;;;8.88;6.05;;;1.50;99.90;;;;;;4977585;28;20078;-85
2021/12/08 11:36:17;;;;;;;8.65;5.85;;;1.40;99.90;;;;;;4975516;28;20027;-84
2021/12/08 11:38:45;;;;;;;7.68;5.78;;;1.40;99.90;;;;;;4981633;28;20066;-85
2021/12/08 11:41:34;;;;;;;6.70;5.43;;;1.40;99.90;;;;;;4979648;28;20023;-85
2021/12/08 11:44:03;;;;;;;10.77;7.10;;;1.40;99.90;;;;;;4996311;28;20031;-84
2021/12/08 11:46:32;;;;;;;;;;;1.50;99.90;;;;;;4977736;28;20038;-85
2021/12/08 11:49:09;;;;;;;7.22;6.05;;;1.50;99.90;;;;;;4974456;28;20454;-84
2021/12/08 11:51:49;;;;;;;8.07;5.88;;;1.50;99.90;;;;;;4971206;28;20082;-84
2021/12/08 11:54:25;;;;;;;8.32;5.78;;;1.50;99.90;;;;;;4974806;28;20031;-85
2021/12/08 11:56:52;;;;;;;8.50;6.65;;;1.50;99.90;;;;;;4988839;28;20669;-87
2021/12/08 11:59:18;;;;;;;7.53;6.47;;;1.60;99.90;;;;;;4970104;28;20149;-85
2021/12/08 12:01:46;;;;;;;8.45;7.05;;;1.60;99.90;;;;;;4971526;28;20030;-85
2021/12/08 12:04:11;;;;;;;10.82;6.68;;;1.60;99.90;;;;;;4966367;28;20041;-85
2021/12/08 12:06:38;;;;;;;8.45;7.07;;;1.60;99.90;;;;;;4973012;28;20022;-84
2021/12/08 12:09:06;;;;;;;8.77;5.93;;;1.60;99.90;;;;;;4969062;28;20057;-84
2021/12/08 12:11:32;;;;;;;8.60;5.55;;;1.60;99.90;;;;;;4971240;28;20134;-84
2021/12/08 12:13:59;;;;;;;9.05;5.72;;;1.60;99.90;;;;;;4975976;28;20038;-84
2021/12/08 12:16:25;;;;;;;8.90;6.70;;;1.60;99.90;;;;;;4970111;28;20121;-84
2021/12/08 12:18:54;;;;;;;8.10;6.20;;;1.70;99.90;;;;;;4974815;28;20951;-84
2021/12/08 12:21:28;;;;;;;6.30;5.72;;;1.60;99.90;;;;;;4975934;28;20026;-84
2021/12/08 12:24:19;;;;;;;6.68;5.90;;;1.70;99.90;;;;;;4992753;28;20023;-84
2021/12/08 12:26:56;;;;;;;9.25;6.38;;;1.60;99.90;;;;;;4972178;28;20073;-84
2021/12/08 12:29:22;;;;;;;9.30;7.25;;;1.60;99.90;;;;;;4976043;28;20403;-85
2021/12/08 12:32:09;;;;;;;15.07;8.50;;;1.60;99.90;;;;;;4989582;28;20031;-85
2021/12/08 12:34:36;;;;;;;11.35;7.65;;;1.60;99.90;;;;;;4971761;28;20134;-85
2021/12/08 12:37:29;;;;;;;15.65;8.98;;;1.60;99.90;;;;;;4970987;28;20030;-85
2021/12/08 12:39:57;;;;;;;19.52;10.23;;;1.60;99.90;;;;;;4972612;28;20034;-84
2021/12/08 12:42:26;;;;;;;14.32;9.07;;;1.60;99.90;;;;;;4976483;28;20062;-85
2021/12/08 12:45:05;;;;;;;15.73;10.32;;;1.60;99.90;;;;;;4972338;28;20067;-85
2021/12/08 12:47:31;;;;;;;18.40;10.07;;;1.60;99.90;;;;;;4972154;28;20034;-85
2021/12/08 12:50:00;;;;;;;18.42;11.82;;;1.60;99.90;;;;;;4972984;28;20034;-84
2021/12/08 12:52:41;;;;;;;16.75;9.98;;;1.60;99.90;;;;;;4988188;28;20105;-84
2021/12/08 12:55:12;;;;;;;14.85;8.25;;;1.60;99.90;;;;;;4974317;28;20034;-85
2021/12/08 12:58:07;;;;;;;14.35;8.95;;;1.60;99.90;;;;;;4969503;28;20105;-84
2021/12/08 13:00:45;;;;;;;14.52;9.55;;;1.60;99.90;;;;;;4967377;28;20045;-85
2021/12/08 13:03:42;;;;;;;8.57;7.68;;;1.60;99.90;;;;;;4970300;28;20078;-85
2021/12/08 13:06:09;;;;;;;9.27;7.38;;;1.70;99.90;;;;;;4965710;28;20031;-85
2021/12/08 13:08:39;;;;;;;14.50;9.05;;;1.70;99.90;;;;;;4968553;28;20042;-85
2021/12/08 13:11:30;;;;;;;14.20;7.95;;;1.70;99.90;;;;;;4970455;28;20032;-85
2021/12/08 13:13:56;;;;;;;9.85;7.32;;;1.70;99.90;;;;;;4970917;28;20752;-85
2021/12/08 13:16:29;;;;;;;9.40;7.38;;;1.70;99.90;;;;;;4973795;28;20119;-85
2021/12/08 13:19:06;;;;;;;12.35;7.95;;;1.70;99.90;;;;;;4973638;28;20061;-85
2021/12/08 13:21:40;;;;;;;12.00;8.20;;;1.70;99.90;;;;;;4971731;28;20054;-85
2021/12/08 13:24:35;;;;;;;12.07;7.30;;;1.80;99.90;;;;;;4974182;28;20039;-85
2021/12/08 13:27:10;;;;;;;9.88;7.60;;;1.80;99.90;;;;;;4978802;28;20030;-85
2021/12/08 13:29:46;;;;;;;8.70;7.13;;;1.80;99.90;;;;;;4972321;28;20092;-85
2021/12/08 13:32:15;;;;;;;13.25;7.85;;;1.80;99.90;;;;;;4968064;28;20046;-85
2021/12/08 13:35:01;;;;;;;11.98;7.57;;;1.80;99.90;;;;;;4970453;28;20097;-85
2021/12/08 13:37:29;;;;;;;10.68;7.78;;;1.80;99.90;;;;;;4966801;28;20045;-85
2021/12/08 13:40:04;;;;;;;9.27;7.65;;;1.70;99.90;;;;;;4972381;28;20130;-85
2021/12/08 13:42:31;;;;;;;10.77;7.25;;;1.70;99.90;;;;;;4969228;28;20380;-85
2021/12/08 13:44:57;;;;;;;14.32;7.35;;;1.70;99.90;;;;;;4972657;28;20023;-85
2021/12/08 13:47:41;;;;;;;10.27;7.13;;;1.70;99.90;;;;;;4973826;28;20031;-85
2021/12/08 13:50:09;;;;;;;9.65;7.03;;;1.70;99.90;;;;;;4971979;28;20379;-85
2021/12/08 13:52:36;;;;;;;;;;;1.60;99.90;;;;;;4973836;28;20070;-86
2021/12/08 13:55:08;;;;;;;7.35;5.70;;;1.60;99.90;;;;;;4978969;28;19925;-85
2021/12/08 13:57:40;;;;;;;7.60;6.78;;;1.70;99.90;;;;;;4979959;28;20036;-85
2021/12/08 14:00:17;;;;;;;10.32;7.10;;;1.70;99.90;;;;;;4983751;28;20043;-85
2021/12/08 14:02:48;;;;;;;9.40;6.43;;;1.70;99.90;;;;;;4987275;28;20049;-85